createdAt,value
2018-07-27T00:02:15.309Z,28.47
2018-07-27T00:04:46.298Z,27.90
2018-07-27T00:07:17.433Z,22.10
2018-07-27T00:09:48.386Z,24.43
2018-07-27T00:12:19.623Z,26.67
2018-07-27T00:14:50.753Z,22.80
2018-07-27T00:17:21.934Z,32.07
2018-07-27T00:19:52.956Z,26.17
2018-07-27T00:22:23.976Z,25.20
2018-07-27T00:24:55.252Z,23.60
2018-07-27T00:27:26.493Z,23.47
2018-07-27T00:29:58.105Z,29.23
2018-07-27T00:32:30.133Z,24.37
2018-07-27T00:35:01.173Z,25.30
2018-07-27T00:37:32.177Z,32.67
2018-07-27T00:40:03.550Z,23.90
2018-07-27T00:42:34.685Z,23.40
2018-07-27T00:45:06.576Z,23.37
2018-07-27T00:47:37.754Z,24.33
2018-07-27T00:50:09.112Z,22.53
2018-07-27T00:52:40.717Z,23.03
2018-07-27T00:55:12.031Z,25.93
2018-07-27T00:57:45.236Z,21.73
2018-07-27T01:00:18.141Z,23.07
2018-07-27T01:02:50.010Z,22.43
2018-07-27T01:05:21.239Z,22.27
2018-07-27T01:07:52.450Z,26.70
2018-07-27T01:10:23.668Z,23.30
2018-07-27T01:12:54.717Z,21.57
2018-07-27T01:15:25.719Z,26.97
2018-07-27T01:17:57.893Z,25.00
2018-07-27T01:20:29.658Z,24.57
2018-07-27T01:23:01.726Z,23.70
2018-07-27T01:25:32.689Z,24.57
2018-07-27T01:28:03.537Z,22.43
2018-07-27T01:30:34.640Z,29.77
2018-07-27T01:33:05.709Z,25.93
2018-07-27T01:35:37.669Z,22.23
2018-07-27T01:38:08.611Z,24.50
2018-07-27T01:40:39.443Z,27.40
2018-07-27T01:43:10.568Z,21.80
2018-07-27T01:45:42.323Z,23.57
2018-07-27T01:48:14.892Z,26.00
2018-07-27T01:50:48.020Z,24.33
2018-07-27T01:53:20.550Z,24.20
2018-07-27T01:55:52.337Z,25.53
2018-07-27T01:58:23.638Z,27.33
2018-07-27T02:00:55.292Z,26.20
2018-07-27T02:03:26.338Z,25.50
2018-07-27T02:05:57.546Z,25.80
2018-07-27T02:08:28.661Z,25.70
2018-07-27T02:11:00.102Z,24.67
2018-07-27T02:13:31.112Z,24.60
2018-07-27T02:16:03.188Z,29.53
2018-07-27T02:18:34.588Z,23.90
2018-07-27T02:21:05.722Z,25.07
2018-07-27T02:23:36.782Z,24.47
2018-07-27T02:26:07.858Z,28.60
2018-07-27T02:28:39.267Z,24.00
2018-07-27T02:31:10.711Z,27.77
2018-07-27T02:33:41.980Z,22.20
2018-07-27T02:36:14.403Z,25.83
2018-07-27T02:38:46.920Z,21.43
2018-07-27T02:41:17.761Z,23.20
2018-07-27T02:43:48.756Z,20.67
2018-07-27T02:46:20.636Z,21.33
2018-07-27T02:48:52.031Z,20.30
2018-07-27T02:51:23.140Z,26.30
2018-07-27T02:53:54.611Z,22.50
2018-07-27T02:56:27.221Z,21.97
2018-07-27T02:58:59.084Z,25.17
2018-07-27T03:01:34.320Z,20.57
2018-07-27T03:04:06.869Z,21.67
2018-07-27T03:06:38.306Z,25.80
2018-07-27T03:09:15.059Z,24.23
2018-07-27T03:11:46.173Z,26.93
2018-07-27T03:14:18.367Z,30.57
2018-07-27T03:16:50.388Z,28.77
2018-07-27T03:19:22.396Z,29.63
2018-07-27T03:21:54.291Z,26.30
2018-07-27T03:24:25.333Z,25.40
2018-07-27T03:26:56.388Z,24.30
2018-07-27T03:29:33.043Z,30.27
2018-07-27T03:32:04.069Z,22.63
2018-07-27T03:34:35.232Z,29.63
2018-07-27T03:37:07.383Z,22.70
2018-07-27T03:39:40.313Z,20.10
2018-07-27T03:42:11.415Z,19.97
2018-07-27T03:44:43.295Z,19.23
2018-07-27T03:47:15.809Z,19.63
2018-07-27T03:49:47.028Z,19.00
2018-07-27T03:52:17.998Z,25.37
2018-07-27T03:54:49.123Z,24.00
2018-07-27T03:57:20.938Z,19.90
2018-07-27T03:59:53.253Z,26.47
2018-07-27T04:02:24.836Z,23.50
2018-07-27T04:04:57.006Z,25.73
2018-07-27T04:07:28.195Z,21.40
2018-07-27T04:09:59.256Z,17.53
2018-07-27T04:12:30.569Z,15.17
2018-07-27T04:15:01.855Z,16.17
2018-07-27T04:17:32.838Z,19.57
2018-07-27T04:20:04.398Z,24.93
2018-07-27T04:22:35.757Z,21.70
2018-07-27T04:25:06.961Z,20.47
2018-07-27T04:27:38.069Z,21.07
2018-07-27T04:30:09.269Z,23.07
2018-07-27T04:32:41.424Z,24.10
2018-07-27T04:35:12.488Z,21.80
2018-07-27T04:37:43.610Z,16.03
2018-07-27T04:40:18.392Z,18.23
2018-07-27T04:42:53.751Z,19.10
2018-07-27T04:45:26.786Z,17.00
2018-07-27T04:47:58.265Z,15.23
2018-07-27T04:50:30.207Z,16.33
2018-07-27T04:53:02.860Z,18.27
2018-07-27T04:55:35.520Z,15.73
2018-07-27T04:58:07.299Z,16.00
2018-07-27T05:00:38.781Z,15.83
2018-07-27T05:03:11.349Z,16.17
2018-07-27T05:05:44.293Z,15.67
2018-07-27T05:08:16.118Z,17.53
2018-07-27T05:10:48.000Z,15.63
2018-07-27T05:13:20.231Z,17.70
2018-07-27T05:15:51.294Z,19.00
2018-07-27T05:18:23.438Z,18.37
2018-07-27T05:20:54.590Z,18.23
2018-07-27T05:23:26.708Z,16.17
2018-07-27T05:25:58.112Z,16.20
2018-07-27T05:28:29.634Z,15.70
2018-07-27T05:31:00.421Z,15.93
2018-07-27T05:33:31.142Z,14.50
2018-07-27T05:36:01.928Z,14.77
2018-07-27T05:38:32.821Z,14.23
2018-07-27T05:41:03.567Z,14.40
2018-07-27T05:43:35.813Z,13.07
2018-07-27T05:46:06.867Z,12.20
2018-07-27T05:48:37.725Z,13.20
2018-07-27T05:51:08.517Z,14.27
2018-07-27T05:53:39.260Z,13.90
2018-07-27T05:56:09.892Z,14.30
2018-07-27T05:58:41.231Z,13.07
2018-07-27T06:01:12.624Z,12.63
2018-07-27T06:03:44.135Z,14.70
2018-07-27T06:06:15.506Z,12.53
2018-07-27T06:08:46.609Z,14.10
2018-07-27T06:11:17.963Z,14.43
2018-07-27T06:13:49.153Z,13.77
2018-07-27T06:16:20.142Z,11.50
2018-07-27T06:18:51.410Z,11.90
2018-07-27T06:21:23.619Z,13.70
2018-07-27T06:23:54.738Z,11.63
2018-07-27T06:26:26.473Z,13.37
2018-07-27T06:28:57.640Z,10.83
2018-07-27T06:31:28.938Z,12.23
2018-07-27T06:34:01.049Z,12.07
2018-07-27T06:36:33.173Z,10.90
2018-07-27T06:39:05.233Z,11.20
2018-07-27T06:41:36.226Z,10.50
2018-07-27T06:44:07.494Z,13.43
2018-07-27T06:46:39.941Z,9.90
2018-07-27T06:49:11.816Z,17.73
2018-07-27T06:51:46.268Z,17.55
2018-07-27T06:54:17.591Z,20.43
2018-07-27T06:56:49.125Z,23.75
2018-07-27T06:59:21.022Z,17.82
2018-07-27T07:01:52.290Z,17.00
2018-07-27T07:04:23.991Z,17.15
2018-07-27T07:06:55.144Z,12.73
2018-07-27T07:09:26.451Z,11.97
2018-07-27T07:11:57.366Z,12.40
2018-07-27T07:14:29.159Z,13.87
2018-07-27T07:17:01.832Z,14.40
2018-07-27T07:19:32.924Z,13.37
2018-07-27T07:22:04.406Z,17.00
2018-07-27T07:24:35.923Z,14.13
2018-07-27T07:27:07.287Z,16.30
2018-07-27T07:29:40.724Z,14.13
2018-07-27T07:32:11.924Z,14.10
2018-07-27T07:34:43.010Z,13.00
2018-07-27T07:37:14.538Z,14.43
2018-07-27T07:39:47.577Z,14.40
2018-07-27T07:42:18.844Z,12.97
2018-07-27T07:44:50.431Z,14.93
2018-07-27T07:47:22.748Z,15.13
2018-07-27T07:49:54.023Z,15.47
2018-07-27T07:52:25.251Z,15.07
2018-07-27T07:54:57.453Z,14.20
2018-07-27T07:57:29.378Z,15.07
2018-07-27T08:00:00.621Z,14.90
2018-07-27T08:02:31.454Z,14.57
2018-07-27T08:05:02.798Z,16.67
2018-07-27T08:07:37.883Z,19.13
2018-07-27T08:10:10.206Z,16.33
2018-07-27T08:12:41.356Z,15.27
2018-07-27T08:15:12.632Z,16.47
2018-07-27T08:17:43.641Z,18.70
2018-07-27T08:20:14.908Z,16.60
2018-07-27T08:22:50.066Z,16.17
2018-07-27T08:25:21.057Z,16.27
2018-07-27T08:29:00.434Z,17.10
2018-07-27T08:31:32.890Z,17.33
2018-07-27T08:34:04.171Z,16.77
2018-07-27T08:36:35.620Z,16.53
2018-07-27T08:39:09.656Z,16.53
2018-07-27T08:41:41.116Z,15.53
2018-07-27T08:44:16.656Z,18.67
2018-07-27T08:46:48.063Z,15.57
2018-07-27T08:49:20.432Z,15.33
2018-07-27T08:51:51.565Z,16.10
2018-07-27T08:54:22.549Z,16.70
2018-07-27T08:56:53.722Z,16.90
2018-07-27T08:59:24.924Z,15.43
2018-07-27T09:01:56.066Z,15.73
2018-07-27T09:04:27.054Z,14.90
2018-07-27T09:06:58.496Z,15.60
2018-07-27T09:09:29.737Z,13.43
2018-07-27T09:12:00.942Z,15.07
2018-07-27T09:14:31.824Z,17.10
2018-07-27T09:17:02.600Z,19.20
2018-07-27T09:19:34.672Z,19.93
2018-07-27T09:22:06.271Z,19.97
2018-07-27T09:24:38.473Z,19.27
2018-07-27T09:27:09.961Z,19.37
2018-07-27T09:29:41.222Z,20.80
2018-07-27T09:32:13.817Z,20.10
2018-07-27T09:34:46.802Z,20.20
2018-07-27T09:37:17.779Z,19.37
2018-07-27T09:39:48.722Z,22.37
2018-07-27T09:42:19.944Z,21.00
2018-07-27T09:44:52.255Z,21.57
2018-07-27T09:47:23.684Z,21.90
2018-07-27T09:49:54.839Z,21.60
2018-07-27T09:52:25.943Z,22.13
2018-07-27T09:54:57.062Z,21.60
2018-07-27T09:57:28.262Z,20.70
2018-07-27T09:59:59.074Z,22.87
2018-07-27T10:02:30.528Z,22.80
2018-07-27T10:05:01.700Z,22.50
2018-07-27T10:07:32.775Z,23.20
2018-07-27T10:10:06.042Z,24.70
2018-07-27T10:12:37.407Z,22.63
2018-07-27T10:15:08.779Z,22.77
2018-07-27T10:17:39.943Z,21.83
2018-07-27T10:20:11.566Z,25.77
2018-07-27T10:22:43.409Z,25.10
2018-07-27T10:25:14.485Z,24.90
2018-07-27T10:27:45.660Z,25.57
2018-07-27T10:30:16.671Z,27.43
2018-07-27T10:32:47.971Z,23.37
2018-07-27T10:35:18.996Z,31.23
2018-07-27T10:37:50.153Z,24.47
2018-07-27T10:40:21.795Z,23.47
2018-07-27T10:42:52.793Z,22.77
2018-07-27T10:45:23.933Z,21.47
2018-07-27T10:47:56.414Z,27.57
2018-07-27T10:50:28.042Z,23.47
2018-07-27T10:53:01.652Z,22.83
2018-07-27T10:55:33.864Z,22.40
2018-07-27T10:58:05.283Z,23.73
2018-07-27T11:00:37.094Z,26.23
2018-07-27T11:03:22.365Z,25.83
2018-07-27T11:05:53.693Z,23.23
2018-07-27T11:08:28.064Z,22.13
2018-07-27T11:10:59.279Z,23.97
2018-07-27T11:13:30.142Z,22.00
2018-07-27T11:16:01.175Z,21.77
2018-07-27T11:18:32.244Z,27.33
2018-07-27T11:21:03.417Z,25.33
2018-07-27T11:23:34.845Z,20.20
2018-07-27T11:26:07.255Z,19.13
2018-07-27T11:28:38.966Z,22.43
2018-07-27T11:31:11.048Z,20.73
2018-07-27T11:33:42.293Z,20.77
2018-07-27T11:36:15.055Z,20.23
2018-07-27T11:38:46.568Z,23.63
2018-07-27T11:41:19.339Z,18.50
2018-07-27T11:43:50.376Z,19.47
2018-07-27T11:46:22.143Z,20.03
2018-07-27T11:48:53.847Z,18.20
2018-07-27T11:51:25.253Z,17.60
2018-07-27T11:53:56.395Z,18.40
2018-07-27T11:56:40.019Z,17.13
2018-07-27T11:59:11.008Z,17.50
2018-07-27T12:01:42.318Z,16.10
2018-07-27T12:04:15.326Z,16.73
2018-07-27T12:06:46.455Z,18.20
2018-07-27T12:09:18.823Z,15.73
2018-07-27T12:11:49.974Z,17.03
2018-07-27T12:14:21.170Z,17.07
2018-07-27T12:16:52.364Z,15.53
2018-07-27T12:19:23.533Z,18.07
2018-07-27T12:21:54.604Z,15.37
2018-07-27T12:24:25.722Z,17.67
2018-07-27T12:26:56.505Z,18.40
2018-07-27T12:29:28.285Z,19.67
2018-07-27T12:31:59.308Z,18.40
2018-07-27T12:34:32.074Z,19.73
2018-07-27T12:37:03.060Z,17.87
2018-07-27T12:39:34.464Z,19.67
2018-07-27T12:42:06.376Z,20.17
2018-07-27T12:44:37.395Z,18.97
2018-07-27T12:47:08.864Z,20.90
2018-07-27T12:49:39.962Z,18.70
2018-07-27T12:52:11.154Z,22.00
2018-07-27T12:54:42.131Z,19.00
2018-07-27T12:57:13.503Z,18.93
2018-07-27T12:59:44.612Z,20.03
2018-07-27T13:02:15.812Z,19.60
2018-07-27T13:04:48.596Z,33.03
2018-07-27T13:07:19.842Z,18.27
2018-07-27T13:09:55.343Z,18.90
2018-07-27T13:12:26.887Z,18.70
2018-07-27T13:14:57.808Z,17.97
2018-07-27T13:17:28.801Z,17.30
2018-07-27T13:20:01.248Z,21.20
2018-07-27T13:22:32.689Z,19.47
2018-07-27T13:25:05.868Z,18.10
2018-07-27T13:27:37.763Z,22.70
2018-07-27T13:30:10.663Z,22.37
2018-07-27T13:32:42.867Z,16.57
2018-07-27T13:37:47.163Z,17.53
2018-07-27T13:40:18.061Z,19.13
2018-07-27T13:42:49.106Z,18.80
2018-07-27T13:45:21.044Z,18.17
2018-07-27T13:47:52.153Z,18.27
2018-07-27T13:53:02.722Z,17.73
2018-07-27T13:55:33.932Z,16.53
2018-07-27T13:58:05.175Z,15.03
2018-07-27T14:00:37.334Z,17.73
2018-07-27T14:03:08.577Z,14.47
2018-07-27T14:05:39.537Z,19.10
2018-07-27T14:08:16.417Z,15.70
2018-07-27T14:10:47.211Z,14.50
2018-07-27T14:13:18.338Z,12.30
2018-07-27T14:15:50.561Z,14.73
2018-07-27T14:18:21.640Z,13.40
2018-07-27T14:20:53.158Z,12.83
2018-07-27T14:23:25.268Z,12.40
2018-07-27T14:25:56.295Z,13.07
2018-07-27T14:28:27.265Z,10.67
2018-07-27T14:30:59.018Z,10.23
2018-07-27T14:33:35.881Z,10.40
2018-07-27T14:36:06.988Z,11.63
2018-07-27T14:38:38.484Z,10.47
2018-07-27T14:41:09.488Z,9.77
2018-07-27T14:43:41.388Z,10.07
2018-07-27T14:46:12.609Z,9.80
2018-07-27T14:48:44.273Z,8.40
2018-07-27T14:51:19.014Z,9.20
2018-07-27T14:53:50.839Z,11.73
2018-07-27T14:56:22.357Z,9.30
2018-07-27T14:58:54.681Z,10.10
2018-07-27T15:01:25.771Z,10.10
2018-07-27T15:03:56.752Z,9.57
2018-07-27T15:06:27.911Z,10.20
2018-07-27T15:08:59.999Z,10.23
2018-07-27T15:11:31.793Z,10.63
2018-07-27T15:14:05.956Z,10.07
2018-07-27T15:16:37.323Z,15.60
2018-07-27T15:19:09.376Z,9.27
2018-07-27T15:21:41.792Z,19.97
2018-07-27T15:24:12.833Z,14.97
2018-07-27T15:26:43.828Z,12.03
2018-07-27T15:29:15.002Z,12.20
2018-07-27T15:31:46.249Z,10.90
2018-07-27T15:34:17.898Z,14.27
2018-07-27T15:36:49.447Z,24.70
2018-07-27T15:39:20.676Z,13.73
2018-07-27T15:41:51.720Z,17.03
2018-07-27T15:44:23.251Z,13.93
2018-07-27T15:46:54.231Z,18.33
2018-07-27T15:49:25.366Z,13.00
2018-07-27T15:51:56.516Z,17.30
2018-07-27T15:54:27.642Z,15.43
2018-07-27T15:56:58.969Z,13.60
2018-07-27T15:59:30.818Z,18.17
2018-07-27T16:02:03.207Z,11.57
2018-07-27T16:04:34.419Z,10.70
2018-07-27T16:07:05.501Z,15.23
2018-07-27T16:09:39.479Z,12.53
2018-07-27T16:12:10.475Z,15.33
2018-07-27T16:14:41.669Z,9.57
2018-07-27T16:17:12.600Z,11.50
2018-07-27T16:19:43.514Z,11.80
2018-07-27T16:22:15.178Z,11.73
2018-07-27T16:24:46.376Z,15.00
2018-07-27T16:27:19.446Z,21.80
2018-07-27T16:29:50.534Z,10.03
2018-07-27T16:32:21.636Z,9.77
2018-07-27T16:34:52.870Z,8.70
2018-07-27T16:37:24.089Z,10.10
2018-07-27T16:39:55.625Z,10.93
2018-07-27T16:42:26.876Z,9.67
2018-07-27T16:44:58.212Z,9.97
2018-07-27T16:47:29.434Z,9.37
2018-07-27T16:50:00.990Z,9.87
2018-07-27T16:52:32.160Z,10.90
2018-07-27T16:55:03.667Z,13.13
2018-07-27T16:57:36.193Z,9.50
2018-07-27T17:00:07.328Z,11.30
2018-07-27T17:02:38.582Z,9.60
2018-07-27T17:05:09.771Z,15.53
2018-07-27T17:07:40.942Z,9.70
2018-07-27T17:10:12.081Z,11.17
2018-07-27T17:12:43.267Z,9.33
2018-07-27T17:15:16.167Z,13.97
2018-07-27T17:17:48.254Z,11.47
2018-07-27T17:20:20.213Z,11.60
2018-07-27T17:22:51.517Z,8.80
2018-07-27T17:25:22.566Z,11.03
2018-07-27T17:28:02.252Z,10.13
2018-07-27T17:30:33.762Z,9.70
2018-07-27T17:33:04.885Z,8.70
2018-07-27T17:35:38.423Z,18.93
2018-07-27T17:38:12.741Z,10.67
2018-07-27T17:40:44.258Z,11.20
2018-07-27T17:43:15.615Z,11.37
2018-07-27T17:45:46.620Z,10.00
2018-07-27T17:48:23.166Z,10.83
2018-07-27T17:50:54.178Z,9.60
2018-07-27T17:53:26.155Z,13.47
2018-07-27T17:55:57.016Z,9.00
2018-07-27T17:58:27.958Z,12.17
2018-07-27T18:00:59.118Z,8.83
2018-07-27T18:03:30.706Z,9.60
2018-07-27T18:06:02.355Z,12.93
2018-07-27T18:08:35.123Z,9.53
2018-07-27T18:11:10.735Z,9.57
2018-07-27T18:13:42.181Z,9.53
2018-07-27T18:16:13.307Z,10.33
2018-07-27T18:18:44.384Z,10.00
2018-07-27T18:21:15.373Z,9.83
2018-07-27T18:23:46.923Z,9.47
2018-07-27T18:26:18.001Z,9.27
2018-07-27T18:28:48.888Z,9.13
2018-07-27T18:31:20.045Z,7.87
2018-07-27T18:33:51.241Z,7.93
2018-07-27T18:36:23.657Z,7.60
2018-07-27T18:38:54.758Z,8.40
2018-07-27T18:41:29.234Z,7.53
2018-07-27T18:44:06.795Z,7.37
2018-07-27T18:46:38.714Z,7.23
2018-07-27T18:49:10.404Z,8.50
2018-07-27T18:51:41.474Z,13.70
2018-07-27T18:54:13.089Z,8.13
2018-07-27T18:56:44.167Z,8.10
2018-07-27T18:59:15.991Z,7.80
2018-07-27T19:01:47.217Z,11.20
2018-07-27T19:04:18.229Z,9.73
2018-07-27T19:06:49.295Z,7.83
2018-07-27T19:09:20.422Z,8.47
2018-07-27T19:11:51.589Z,10.17
2018-07-27T19:14:22.807Z,8.87
2018-07-27T19:16:54.033Z,9.10
2018-07-27T19:19:25.425Z,8.97
2018-07-27T19:21:56.656Z,8.70
2018-07-27T19:24:28.054Z,8.57
2018-07-27T19:27:02.110Z,10.23
2018-07-27T19:29:34.805Z,9.10
2018-07-27T19:32:06.217Z,9.33
2018-07-27T19:34:37.793Z,9.20
2018-07-27T19:37:09.441Z,10.47
2018-07-27T19:39:40.881Z,10.17
2018-07-27T19:42:13.107Z,9.73
2018-07-27T19:44:45.022Z,14.33
2018-07-27T19:47:16.131Z,23.00
2018-07-27T19:49:47.234Z,12.13
2018-07-27T19:52:18.540Z,30.13
2018-07-27T19:54:51.116Z,9.93
2018-07-27T19:57:26.383Z,11.40
2018-07-27T19:59:58.573Z,14.53
2018-07-27T20:02:32.797Z,15.33
2018-07-27T20:05:03.896Z,15.90
2018-07-27T20:07:35.032Z,12.03
2018-07-27T20:10:07.143Z,13.50
2018-07-27T20:15:15.179Z,11.30
2018-07-27T20:17:47.566Z,11.17
2018-07-27T20:20:22.908Z,11.07
2018-07-27T20:22:54.939Z,13.33
2018-07-27T20:25:26.277Z,10.40
2018-07-27T20:27:58.331Z,13.77
2018-07-27T20:30:30.129Z,13.73
2018-07-27T20:33:02.074Z,15.47
2018-07-27T20:35:33.746Z,13.30
2018-07-27T20:38:05.770Z,10.30
2018-07-27T20:40:37.079Z,13.30
2018-07-27T20:43:08.258Z,19.43
2018-07-27T20:45:39.454Z,20.27
2018-07-27T20:48:11.385Z,16.13
2018-07-27T20:50:42.508Z,17.20
2018-07-27T20:53:14.191Z,10.47
2018-07-27T20:55:46.194Z,10.87
2018-07-27T20:58:18.251Z,11.67
2018-07-27T21:00:49.390Z,11.27
2018-07-27T21:03:20.448Z,12.53
2018-07-27T21:05:51.472Z,11.00
2018-07-27T21:08:22.602Z,11.13
2018-07-27T21:10:53.830Z,13.47
2018-07-27T21:13:25.470Z,10.47
2018-07-27T21:15:57.393Z,17.63
2018-07-27T21:18:29.194Z,10.20
2018-07-27T21:21:00.435Z,14.47
2018-07-27T21:23:32.157Z,17.93
2018-07-27T21:26:03.171Z,14.90
2018-07-27T21:28:34.324Z,11.93
2018-07-27T21:31:06.279Z,11.27
2018-07-27T21:33:37.315Z,15.53
2018-07-27T21:36:08.239Z,14.20
2018-07-27T21:38:39.687Z,15.93
2018-07-27T21:41:11.871Z,13.13
2018-07-27T21:43:43.367Z,10.77
2018-07-27T21:46:15.881Z,18.60
2018-07-27T21:48:47.662Z,11.17
2018-07-27T21:51:18.404Z,15.50
2018-07-27T21:53:49.109Z,12.87
2018-07-27T21:56:20.279Z,10.57
2018-07-27T21:58:51.044Z,10.47
2018-07-27T22:01:23.159Z,11.43
2018-07-27T22:03:53.916Z,11.23
2018-07-27T22:06:24.709Z,18.30
2018-07-27T22:08:55.488Z,15.63
2018-07-27T22:11:28.116Z,11.60
2018-07-27T22:13:59.737Z,11.60
2018-07-27T22:16:31.512Z,12.63
2018-07-27T22:19:03.322Z,11.53
2018-07-27T22:21:34.674Z,15.10
2018-07-27T22:24:06.591Z,11.97
2018-07-27T22:26:38.617Z,16.90
2018-07-27T22:29:10.344Z,11.03
2018-07-27T22:31:41.106Z,10.80
2018-07-27T22:34:14.235Z,18.07
2018-07-27T22:36:45.783Z,11.07
2018-07-27T22:39:17.486Z,13.43
2018-07-27T22:41:48.595Z,13.93
2018-07-27T22:44:19.755Z,11.93
2018-07-27T22:46:51.879Z,10.83
2018-07-27T22:49:22.856Z,12.40
2018-07-27T22:51:54.055Z,10.77
2018-07-27T22:54:25.255Z,11.57
2018-07-27T22:56:56.386Z,12.57
2018-07-27T22:59:27.500Z,13.80
2018-07-27T23:01:58.490Z,11.67
2018-07-27T23:04:29.837Z,11.10
2018-07-27T23:07:00.634Z,11.43
2018-07-27T23:09:32.474Z,11.40
2018-07-27T23:12:04.174Z,15.60
2018-07-27T23:14:35.285Z,13.73
2018-07-27T23:17:07.634Z,12.63
2018-07-27T23:19:39.462Z,14.20
2018-07-27T23:22:10.873Z,14.77
2018-07-27T23:24:41.953Z,13.50
2018-07-27T23:27:13.205Z,12.07
2018-07-27T23:29:44.638Z,12.90
2018-07-27T23:32:16.621Z,11.33
2018-07-27T23:34:47.762Z,12.53
2018-07-27T23:37:19.351Z,12.73
2018-07-27T23:39:50.024Z,12.00
2018-07-27T23:42:21.884Z,14.33
2018-07-27T23:44:56.361Z,12.77
2018-07-27T23:47:27.048Z,16.57
2018-07-27T23:49:57.737Z,18.00
2018-07-27T23:52:29.020Z,11.93
2018-07-27T23:55:00.730Z,12.03
2018-07-27T23:57:31.487Z,11.17
